sensor_id;sensor_type;location;lat;lon;timestamp;temperature;humidity
3614;DHT22;1821;50.936;6.854;2023-04-15T00:00:07;6.20;99.90
3614;DHT22;1821;50.936;6.854;2023-04-15T00:00:50;6.10;99.90
3614;DHT22;1821;50.936;6.854;2023-04-15T00:01:32;6.40;99.90
3614;DHT22;1821;50.936;6.854;2023-04-15T00:02:18;6.10;99.90
3614;DHT22;1821;50.936;6.854;2023-04-15T00:03:03;6.30;99.90
3614;DHT22;1821;50.936;6.854;2023-04-15T00:03:46;6.50;99.90
3614;DHT22;1821;50.936;6.854;2023-04-15T00:04:28;6.10;99.90
3614;DHT22;1821;50.936;6.854;2023-04-15T00:05:12;6.40;99.90
3614;DHT22;1821;50.936;6.854;2023-04-15T00:05:54;6.40;99.90
3614;DHT22;1821;50.936;6.854;2023-04-15T00:06:36;6.40;99.90
3614;DHT22;1821;50.936;6.854;2023-04-15T00:07:18;6.30;99.90
3614;DHT22;1821;50.936;6.854;2023-04-15T00:08:02;6.40;99.90
3614;DHT22;1821;50.936;6.854;2023-04-15T00:08:45;6.30;99.90
3614;DHT22;1821;50.936;6.854;2023-04-15T00:09:29;6.40;99.90
3614;DHT22;1821;50.936;6.854;2023-04-15T00:10:12;5.70;99.90
3614;DHT22;1821;50.936;6.854;2023-04-15T00:10:54;6.30;99.90
3614;DHT22;1821;50.936;6.854;2023-04-15T00:11:37;6.20;99.90
3614;DHT22;1821;50.936;6.854;2023-04-15T00:12:19;6.00;99.90
3614;DHT22;1821;50.936;6.854;2023-04-15T00:13:00;6.20;99.90
3614;DHT22;1821;50.936;6.854;2023-04-15T00:13:43;6.30;99.90
3614;DHT22;1821;50.936;6.854;2023-04-15T00:14:26;6.20;99.90
3614;DHT22;1821;50.936;6.854;2023-04-15T00:15:09;6.00;99.90
3614;DHT22;1821;50.936;6.854;2023-04-15T00:15:50;6.10;99.90
3614;DHT22;1821;50.936;6.854;2023-04-15T00:16:32;6.20;99.90
3614;DHT22;1821;50.936;6.854;2023-04-15T00:17:14;6.20;99.90
3614;DHT22;1821;50.936;6.854;2023-04-15T00:17:59;6.00;99.90
3614;DHT22;1821;50.936;6.854;2023-04-15T00:18:42;6.10;99.90
3614;DHT22;1821;50.936;6.854;2023-04-15T00:19:23;6.00;99.90
3614;DHT22;1821;50.936;6.854;2023-04-15T00:20:06;6.20;99.90
3614;DHT22;1821;50.936;6.854;2023-04-15T00:20:48;6.10;99.90
3614;DHT22;1821;50.936;6.854;2023-04-15T00:21:30;6.20;99.90
3614;DHT22;1821;50.936;6.854;2023-04-15T00:22:12;6.20;99.90
3614;DHT22;1821;50.936;6.854;2023-04-15T00:22:54;6.30;99.90
3614;DHT22;1821;50.936;6.854;2023-04-15T00:23:36;6.00;99.90
3614;DHT22;1821;50.936;6.854;2023-04-15T00:24:18;6.20;99.90
3614;DHT22;1821;50.936;6.854;2023-04-15T00:24:59;6.30;99.90
3614;DHT22;1821;50.936;6.854;2023-04-15T00:25:41;6.10;99.90
3614;DHT22;1821;50.936;6.854;2023-04-15T00:26:23;6.40;99.90
3614;DHT22;1821;50.936;6.854;2023-04-15T00:27:05;6.00;99.90
3614;DHT22;1821;50.936;6.854;2023-04-15T00:27:47;6.10;99.90
3614;DHT22;1821;50.936;6.854;2023-04-15T00:28:29;6.00;99.90
3614;DHT22;1821;50.936;6.854;2023-04-15T00:29:12;6.00;99.90
3614;DHT22;1821;50.936;6.854;2023-04-15T00:29:54;6.10;99.90
3614;DHT22;1821;50.936;6.854;2023-04-15T00:30:36;6.00;99.90
3614;DHT22;1821;50.936;6.854;2023-04-15T00:31:18;6.10;99.90
3614;DHT22;1821;50.936;6.854;2023-04-15T00:31:59;6.00;99.90
3614;DHT22;1821;50.936;6.854;2023-04-15T00:32:41;6.20;99.90
3614;DHT22;1821;50.936;6.854;2023-04-15T00:33:24;5.80;99.90
3614;DHT22;1821;50.936;6.854;2023-04-15T00:34:06;5.90;99.90
3614;DHT22;1821;50.936;6.854;2023-04-15T00:34:47;6.00;99.90
3614;DHT22;1821;50.936;6.854;2023-04-15T00:35:30;5.90;99.90
3614;DHT22;1821;50.936;6.854;2023-04-15T00:36:16;6.10;99.90
3614;DHT22;1821;50.936;6.854;2023-04-15T00:36:58;6.00;99.90
3614;DHT22;1821;50.936;6.854;2023-04-15T00:37:41;5.80;99.90
3614;DHT22;1821;50.936;6.854;2023-04-15T00:38:26;6.10;99.90
3614;DHT22;1821;50.936;6.854;2023-04-15T00:39:07;6.10;99.90
3614;DHT22;1821;50.936;6.854;2023-04-15T00:39:49;6.10;99.90
3614;DHT22;1821;50.936;6.854;2023-04-15T00:40:31;6.00;99.90
3614;DHT22;1821;50.936;6.854;2023-04-15T00:41:14;6.10;99.90
3614;DHT22;1821;50.936;6.854;2023-04-15T00:41:56;6.20;99.90
3614;DHT22;1821;50.936;6.854;2023-04-15T00:42:38;6.10;99.90
3614;DHT22;1821;50.936;6.854;2023-04-15T00:43:23;6.00;99.90
3614;DHT22;1821;50.936;6.854;2023-04-15T00:44:06;5.90;99.90
3614;DHT22;1821;50.936;6.854;2023-04-15T00:44:48;6.10;99.90
3614;DHT22;1821;50.936;6.854;2023-04-15T00:45:32;5.90;99.90
3614;DHT22;1821;50.936;6.854;2023-04-15T00:46:15;6.00;99.90
3614;DHT22;1821;50.936;6.854;2023-04-15T00:46:59;5.90;99.90
3614;DHT22;1821;50.936;6.854;2023-04-15T00:47:42;5.80;99.90
3614;DHT22;1821;50.936;6.854;2023-04-15T00:48:25;5.90;99.90
3614;DHT22;1821;50.936;6.854;2023-04-15T00:49:07;5.90;99.90
3614;DHT22;1821;50.936;6.854;2023-04-15T00:49:49;5.70;99.90
3614;DHT22;1821;50.936;6.854;2023-04-15T00:50:32;5.90;99.90
3614;DHT22;1821;50.936;6.854;2023-04-15T00:51:14;5.90;99.90
3614;DHT22;1821;50.936;6.854;2023-04-15T00:51:56;5.90;99.90
3614;DHT22;1821;50.936;6.854;2023-04-15T00:52:39;5.90;99.90
3614;DHT22;1821;50.936;6.854;2023-04-15T00:53:21;6.00;99.90
3614;DHT22;1821;50.936;6.854;2023-04-15T00:54:04;6.20;99.90
3614;DHT22;1821;50.936;6.854;2023-04-15T00:54:46;5.90;99.90
3614;DHT22;1821;50.936;6.854;2023-04-15T00:55:28;5.90;99.90
3614;DHT22;1821;50.936;6.854;2023-04-15T00:56:10;6.00;99.90
3614;DHT22;1821;50.936;6.854;2023-04-15T00:56:55;5.80;99.90
3614;DHT22;1821;50.936;6.854;2023-04-15T00:57:38;5.90;99.90
3614;DHT22;1821;50.936;6.854;2023-04-15T00:58:20;5.70;99.90
3614;DHT22;1821;50.936;6.854;2023-04-15T00:59:03;6.00;99.90
3614;DHT22;1821;50.936;6.854;2023-04-15T00:59:45;5.90;99.90
3614;DHT22;1821;50.936;6.854;2023-04-15T01:00:30;5.60;99.90
3614;DHT22;1821;50.936;6.854;2023-04-15T01:01:12;5.70;99.90
3614;DHT22;1821;50.936;6.854;2023-04-15T01:01:54;5.70;99.90
3614;DHT22;1821;50.936;6.854;2023-04-15T01:02:36;5.80;99.90
3614;DHT22;1821;50.936;6.854;2023-04-15T01:03:19;5.70;99.90
3614;DHT22;1821;50.936;6.854;2023-04-15T01:04:02;5.70;99.90
3614;DHT22;1821;50.936;6.854;2023-04-15T01:04:44;5.70;99.90
3614;DHT22;1821;50.936;6.854;2023-04-15T01:05:30;5.80;99.90
3614;DHT22;1821;50.936;6.854;2023-04-15T01:06:13;5.70;99.90
3614;DHT22;1821;50.936;6.854;2023-04-15T01:06:55;5.20;99.90
3614;DHT22;1821;50.936;6.854;2023-04-15T01:07:37;5.70;99.90
3614;DHT22;1821;50.936;6.854;2023-04-15T01:08:19;5.80;99.90
3614;DHT22;1821;50.936;6.854;2023-04-15T01:09:01;5.80;99.90
3614;DHT22;1821;50.936;6.854;2023-04-15T01:09:46;5.80;99.90
3614;DHT22;1821;50.936;6.854;2023-04-15T01:10:30;5.60;99.90
3614;DHT22;1821;50.936;6.854;2023-04-15T01:11:13;5.70;99.90
3614;DHT22;1821;50.936;6.854;2023-04-15T01:11:55;5.70;99.90
3614;DHT22;1821;50.936;6.854;2023-04-15T01:12:37;5.70;99.90
3614;DHT22;1821;50.936;6.854;2023-04-15T01:13:21;5.60;99.90
3614;DHT22;1821;50.936;6.854;2023-04-15T01:14:04;5.70;99.90
3614;DHT22;1821;50.936;6.854;2023-04-15T01:14:46;5.60;99.90
3614;DHT22;1821;50.936;6.854;2023-04-15T01:15:28;5.80;99.90
3614;DHT22;1821;50.936;6.854;2023-04-15T01:16:10;5.50;99.90
3614;DHT22;1821;50.936;6.854;2023-04-15T01:16:53;5.50;99.90
3614;DHT22;1821;50.936;6.854;2023-04-15T01:17:36;5.50;99.90
3614;DHT22;1821;50.936;6.854;2023-04-15T01:18:19;5.70;99.90
3614;DHT22;1821;50.936;6.854;2023-04-15T01:19:01;5.60;99.90
3614;DHT22;1821;50.936;6.854;2023-04-15T01:19:43;5.60;99.90
3614;DHT22;1821;50.936;6.854;2023-04-15T01:20:28;5.60;99.90
3614;DHT22;1821;50.936;6.854;2023-04-15T01:21:10;5.60;99.90
3614;DHT22;1821;50.936;6.854;2023-04-15T01:21:53;5.50;99.90
3614;DHT22;1821;50.936;6.854;2023-04-15T01:22:35;5.30;99.90
3614;DHT22;1821;50.936;6.854;2023-04-15T01:23:20;5.40;99.90
3614;DHT22;1821;50.936;6.854;2023-04-15T01:24:09;5.40;99.90
3614;DHT22;1821;50.936;6.854;2023-04-15T01:25:07;5.50;99.90
3614;DHT22;1821;50.936;6.854;2023-04-15T01:25:50;5.30;99.90
3614;DHT22;1821;50.936;6.854;2023-04-15T01:26:34;5.20;99.90
3614;DHT22;1821;50.936;6.854;2023-04-15T01:27:16;5.50;99.90
3614;DHT22;1821;50.936;6.854;2023-04-15T01:27:58;5.50;99.90
3614;DHT22;1821;50.936;6.854;2023-04-15T01:28:41;5.40;99.90
3614;DHT22;1821;50.936;6.854;2023-04-15T01:29:23;5.30;99.90
3614;DHT22;1821;50.936;6.854;2023-04-15T01:30:06;5.40;99.90
3614;DHT22;1821;50.936;6.854;2023-04-15T01:30:48;5.40;99.90
3614;DHT22;1821;50.936;6.854;2023-04-15T01:31:31;5.50;99.90
3614;DHT22;1821;50.936;6.854;2023-04-15T01:32:13;5.40;99.90
3614;DHT22;1821;50.936;6.854;2023-04-15T01:32:54;5.50;99.90
3614;DHT22;1821;50.936;6.854;2023-04-15T01:33:38;5.50;99.90
3614;DHT22;1821;50.936;6.854;2023-04-15T01:34:21;5.40;99.90
3614;DHT22;1821;50.936;6.854;2023-04-15T01:35:05;5.40;99.90
3614;DHT22;1821;50.936;6.854;2023-04-15T01:35:48;5.40;99.90
3614;DHT22;1821;50.936;6.854;2023-04-15T01:36:30;5.30;99.90
3614;DHT22;1821;50.936;6.854;2023-04-15T01:37:12;5.40;99.90
3614;DHT22;1821;50.936;6.854;2023-04-15T01:37:56;5.40;99.90
3614;DHT22;1821;50.936;6.854;2023-04-15T01:38:43;5.40;99.90
3614;DHT22;1821;50.936;6.854;2023-04-15T01:39:24;5.50;99.90
3614;DHT22;1821;50.936;6.854;2023-04-15T01:40:07;5.30;99.90
3614;DHT22;1821;50.936;6.854;2023-04-15T01:40:49;5.20;99.90
3614;DHT22;1821;50.936;6.854;2023-04-15T01:41:31;5.30;99.90
3614;DHT22;1821;50.936;6.854;2023-04-15T01:42:13;5.40;99.90
3614;DHT22;1821;50.936;6.854;2023-04-15T01:42:55;5.30;99.90
3614;DHT22;1821;50.936;6.854;2023-04-15T01:43:37;5.10;99.90
3614;DHT22;1821;50.936;6.854;2023-04-15T01:44:19;5.50;99.90
3614;DHT22;1821;50.936;6.854;2023-04-15T01:45:01;5.40;99.90
3614;DHT22;1821;50.936;6.854;2023-04-15T01:45:43;5.20;99.90
3614;DHT22;1821;50.936;6.854;2023-04-15T01:46:25;5.40;99.90
3614;DHT22;1821;50.936;6.854;2023-04-15T01:47:07;5.30;99.90
3614;DHT22;1821;50.936;6.854;2023-04-15T01:47:49;5.20;99.90
3614;DHT22;1821;50.936;6.854;2023-04-15T01:48:33;5.40;99.90
3614;DHT22;1821;50.936;6.854;2023-04-15T01:49:15;5.20;99.90
3614;DHT22;1821;50.936;6.854;2023-04-15T01:49:57;5.30;99.90
3614;DHT22;1821;50.936;6.854;2023-04-15T01:50:39;5.10;99.90
3614;DHT22;1821;50.936;6.854;2023-04-15T01:51:21;5.30;99.90
3614;DHT22;1821;50.936;6.854;2023-04-15T01:52:03;5.20;99.90
3614;DHT22;1821;50.936;6.854;2023-04-15T01:52:46;5.20;99.90
3614;DHT22;1821;50.936;6.854;2023-04-15T01:53:29;5.30;99.90
3614;DHT22;1821;50.936;6.854;2023-04-15T01:54:13;5.30;99.90
3614;DHT22;1821;50.936;6.854;2023-04-15T01:54:54;4.90;99.90
3614;DHT22;1821;50.936;6.854;2023-04-15T01:55:39;5.30;99.90
3614;DHT22;1821;50.936;6.854;2023-04-15T01:56:21;5.20;99.90
3614;DHT22;1821;50.936;6.854;2023-04-15T01:57:07;5.30;99.90
3614;DHT22;1821;50.936;6.854;2023-04-15T01:57:52;5.30;99.90
3614;DHT22;1821;50.936;6.854;2023-04-15T01:58:34;5.30;99.90
3614;DHT22;1821;50.936;6.854;2023-04-15T01:59:16;5.20;99.90
3614;DHT22;1821;50.936;6.854;2023-04-15T01:59:58;5.20;99.90
3614;DHT22;1821;50.936;6.854;2023-04-15T02:00:40;5.30;99.90
3614;DHT22;1821;50.936;6.854;2023-04-15T02:01:22;5.20;99.90
3614;DHT22;1821;50.936;6.854;2023-04-15T02:02:05;5.20;99.90
3614;DHT22;1821;50.936;6.854;2023-04-15T02:02:47;5.10;99.90
3614;DHT22;1821;50.936;6.854;2023-04-15T02:03:29;5.30;99.90
3614;DHT22;1821;50.936;6.854;2023-04-15T02:04:11;5.10;99.90
3614;DHT22;1821;50.936;6.854;2023-04-15T02:04:58;5.10;99.90
3614;DHT22;1821;50.936;6.854;2023-04-15T02:05:43;5.40;99.90
3614;DHT22;1821;50.936;6.854;2023-04-15T02:06:27;6.60;99.90
3614;DHT22;1821;50.936;6.854;2023-04-15T02:07:09;5.10;99.90
3614;DHT22;1821;50.936;6.854;2023-04-15T02:07:51;5.20;99.90
3614;DHT22;1821;50.936;6.854;2023-04-15T02:08:34;5.20;99.90
3614;DHT22;1821;50.936;6.854;2023-04-15T02:09:16;5.20;99.90
3614;DHT22;1821;50.936;6.854;2023-04-15T02:10:00;5.20;99.90
3614;DHT22;1821;50.936;6.854;2023-04-15T02:10:42;5.10;99.90
3614;DHT22;1821;50.936;6.854;2023-04-15T02:11:24;5.10;99.90
3614;DHT22;1821;50.936;6.854;2023-04-15T02:12:07;5.10;99.90
3614;DHT22;1821;50.936;6.854;2023-04-15T02:12:48;5.10;99.90
3614;DHT22;1821;50.936;6.854;2023-04-15T02:13:30;5.10;99.90
3614;DHT22;1821;50.936;6.854;2023-04-15T02:14:12;5.10;99.90
3614;DHT22;1821;50.936;6.854;2023-04-15T02:14:55;4.60;99.90
3614;DHT22;1821;50.936;6.854;2023-04-15T02:15:37;5.00;99.90
3614;DHT22;1821;50.936;6.854;2023-04-15T02:16:19;4.80;99.90
3614;DHT22;1821;50.936;6.854;2023-04-15T02:17:01;4.90;99.90
3614;DHT22;1821;50.936;6.854;2023-04-15T02:17:48;5.10;99.90
3614;DHT22;1821;50.936;6.854;2023-04-15T02:18:33;5.00;99.90
3614;DHT22;1821;50.936;6.854;2023-04-15T02:19:17;5.10;99.90
3614;DHT22;1821;50.936;6.854;2023-04-15T02:19:59;4.60;99.90
3614;DHT22;1821;50.936;6.854;2023-04-15T02:20:41;4.90;99.90
3614;DHT22;1821;50.936;6.854;2023-04-15T02:21:25;5.00;99.90
3614;DHT22;1821;50.936;6.854;2023-04-15T02:22:07;5.00;99.90
3614;DHT22;1821;50.936;6.854;2023-04-15T02:22:50;5.00;99.90
3614;DHT22;1821;50.936;6.854;2023-04-15T02:23:32;5.10;99.90
3614;DHT22;1821;50.936;6.854;2023-04-15T02:24:14;5.00;99.90
3614;DHT22;1821;50.936;6.854;2023-04-15T02:24:56;4.90;99.90
3614;DHT22;1821;50.936;6.854;2023-04-15T02:25:40;5.00;99.90
3614;DHT22;1821;50.936;6.854;2023-04-15T02:26:22;5.00;99.90
3614;DHT22;1821;50.936;6.854;2023-04-15T02:27:05;5.00;99.90
3614;DHT22;1821;50.936;6.854;2023-04-15T02:27:47;4.90;99.90
3614;DHT22;1821;50.936;6.854;2023-04-15T02:28:29;4.70;99.90
3614;DHT22;1821;50.936;6.854;2023-04-15T02:29:11;4.90;99.90
3614;DHT22;1821;50.936;6.854;2023-04-15T02:29:56;4.80;99.90
3614;DHT22;1821;50.936;6.854;2023-04-15T02:30:40;4.90;99.90
3614;DHT22;1821;50.936;6.854;2023-04-15T02:31:22;5.00;99.90
3614;DHT22;1821;50.936;6.854;2023-04-15T02:32:04;4.80;99.90
3614;DHT22;1821;50.936;6.854;2023-04-15T02:32:47;4.80;99.90
3614;DHT22;1821;50.936;6.854;2023-04-15T02:33:29;5.00;99.90
3614;DHT22;1821;50.936;6.854;2023-04-15T02:34:11;4.80;99.90
3614;DHT22;1821;50.936;6.854;2023-04-15T02:34:54;4.80;99.90
3614;DHT22;1821;50.936;6.854;2023-04-15T02:35:36;4.70;99.90
3614;DHT22;1821;50.936;6.854;2023-04-15T02:36:22;5.00;99.90
3614;DHT22;1821;50.936;6.854;2023-04-15T02:37:04;5.00;99.90
3614;DHT22;1821;50.936;6.854;2023-04-15T02:37:47;5.00;99.90
3614;DHT22;1821;50.936;6.854;2023-04-15T02:38:29;5.00;99.90
3614;DHT22;1821;50.936;6.854;2023-04-15T02:39:12;4.80;99.90
3614;DHT22;1821;50.936;6.854;2023-04-15T02:39:57;4.80;99.90
3614;DHT22;1821;50.936;6.854;2023-04-15T02:40:39;4.90;99.90
3614;DHT22;1821;50.936;6.854;2023-04-15T02:41:21;4.90;99.90
3614;DHT22;1821;50.936;6.854;2023-04-15T02:42:07;4.80;99.90
3614;DHT22;1821;50.936;6.854;2023-04-15T02:42:49;4.70;99.90
3614;DHT22;1821;50.936;6.854;2023-04-15T02:43:32;4.80;99.90
3614;DHT22;1821;50.936;6.854;2023-04-15T02:44:13;4.80;99.90
3614;DHT22;1821;50.936;6.854;2023-04-15T02:44:56;4.80;99.90
3614;DHT22;1821;50.936;6.854;2023-04-15T02:45:38;4.80;99.90
3614;DHT22;1821;50.936;6.854;2023-04-15T02:46:21;4.90;99.90
3614;DHT22;1821;50.936;6.854;2023-04-15T02:47:06;4.80;99.90
3614;DHT22;1821;50.936;6.854;2023-04-15T02:47:48;4.80;99.90
3614;DHT22;1821;50.936;6.854;2023-04-15T02:48:30;4.70;99.90
3614;DHT22;1821;50.936;6.854;2023-04-15T02:49:12;4.60;99.90
3614;DHT22;1821;50.936;6.854;2023-04-15T02:49:54;4.90;99.90
3614;DHT22;1821;50.936;6.854;2023-04-15T02:50:36;4.70;99.90
3614;DHT22;1821;50.936;6.854;2023-04-15T02:51:21;4.80;99.90
3614;DHT22;1821;50.936;6.854;2023-04-15T02:52:03;4.80;99.90
3614;DHT22;1821;50.936;6.854;2023-04-15T02:52:47;4.90;99.90
3614;DHT22;1821;50.936;6.854;2023-04-15T02:53:29;4.70;99.90
3614;DHT22;1821;50.936;6.854;2023-04-15T02:54:11;4.70;99.90
3614;DHT22;1821;50.936;6.854;2023-04-15T02:54:56;4.70;99.90
3614;DHT22;1821;50.936;6.854;2023-04-15T02:55:41;4.50;99.90
3614;DHT22;1821;50.936;6.854;2023-04-15T02:56:25;4.60;99.90
3614;DHT22;1821;50.936;6.854;2023-04-15T02:57:08;4.70;99.90
3614;DHT22;1821;50.936;6.854;2023-04-15T02:57:52;4.70;99.90
3614;DHT22;1821;50.936;6.854;2023-04-15T02:58:34;4.60;99.90
3614;DHT22;1821;50.936;6.854;2023-04-15T02:59:17;4.60;99.90
3614;DHT22;1821;50.936;6.854;2023-04-15T02:59:58;4.70;99.90
3614;DHT22;1821;50.936;6.854;2023-04-15T03:00:43;4.70;99.90
3614;DHT22;1821;50.936;6.854;2023-04-15T03:01:25;4.80;99.90
3614;DHT22;1821;50.936;6.854;2023-04-15T03:02:07;4.80;99.90
3614;DHT22;1821;50.936;6.854;2023-04-15T03:02:50;4.90;99.90
3614;DHT22;1821;50.936;6.854;2023-04-15T03:03:37;4.70;99.90
3614;DHT22;1821;50.936;6.854;2023-04-15T03:04:19;4.70;99.90
3614;DHT22;1821;50.936;6.854;2023-04-15T03:05:01;4.80;99.90
3614;DHT22;1821;50.936;6.854;2023-04-15T03:05:46;4.30;99.90
3614;DHT22;1821;50.936;6.854;2023-04-15T03:06:28;4.70;99.90
3614;DHT22;1821;50.936;6.854;2023-04-15T03:07:12;4.60;99.90
3614;DHT22;1821;50.936;6.854;2023-04-15T03:07:55;4.70;99.90
3614;DHT22;1821;50.936;6.854;2023-04-15T03:08:38;4.60;99.90
3614;DHT22;1821;50.936;6.854;2023-04-15T03:09:22;4.60;99.90
3614;DHT22;1821;50.936;6.854;2023-04-15T03:10:04;4.60;99.90
3614;DHT22;1821;50.936;6.854;2023-04-15T03:11:33;4.60;99.90
3614;DHT22;1821;50.936;6.854;2023-04-15T03:12:17;4.60;99.90
3614;DHT22;1821;50.936;6.854;2023-04-15T03:12:58;4.50;99.90
3614;DHT22;1821;50.936;6.854;2023-04-15T03:13:42;4.60;99.90
3614;DHT22;1821;50.936;6.854;2023-04-15T03:14:26;4.60;99.90
3614;DHT22;1821;50.936;6.854;2023-04-15T03:15:08;4.60;99.90
3614;DHT22;1821;50.936;6.854;2023-04-15T03:15:52;4.60;99.90
3614;DHT22;1821;50.936;6.854;2023-04-15T03:16:35;4.60;99.90
3614;DHT22;1821;50.936;6.854;2023-04-15T03:17:17;4.60;99.90
3614;DHT22;1821;50.936;6.854;2023-04-15T03:18:01;4.70;99.90
3614;DHT22;1821;50.936;6.854;2023-04-15T03:18:43;4.70;99.90
3614;DHT22;1821;50.936;6.854;2023-04-15T03:19:27;4.60;99.90
3614;DHT22;1821;50.936;6.854;2023-04-15T03:20:10;4.50;99.90
3614;DHT22;1821;50.936;6.854;2023-04-15T03:20:52;4.60;99.90
3614;DHT22;1821;50.936;6.854;2023-04-15T03:21:36;4.60;99.90
3614;DHT22;1821;50.936;6.854;2023-04-15T03:22:18;4.50;99.90
3614;DHT22;1821;50.936;6.854;2023-04-15T03:23:02;4.60;99.90
3614;DHT22;1821;50.936;6.854;2023-04-15T03:23:47;4.60;99.90
3614;DHT22;1821;50.936;6.854;2023-04-15T03:24:29;4.60;99.90
3614;DHT22;1821;50.936;6.854;2023-04-15T03:25:13;4.60;99.90
3614;DHT22;1821;50.936;6.854;2023-04-15T03:26:01;4.30;99.90
3614;DHT22;1821;50.936;6.854;2023-04-15T03:26:43;4.60;99.90
3614;DHT22;1821;50.936;6.854;2023-04-15T03:27:27;4.90;99.90
3614;DHT22;1821;50.936;6.854;2023-04-15T03:28:10;4.50;99.90
3614;DHT22;1821;50.936;6.854;2023-04-15T03:28:53;4.50;99.90
3614;DHT22;1821;50.936;6.854;2023-04-15T03:29:35;4.50;99.90
3614;DHT22;1821;50.936;6.854;2023-04-15T03:30:17;4.50;99.90
3614;DHT22;1821;50.936;6.854;2023-04-15T03:30:59;4.60;99.90
3614;DHT22;1821;50.936;6.854;2023-04-15T03:31:41;4.50;99.90
3614;DHT22;1821;50.936;6.854;2023-04-15T03:32:23;4.70;99.90
3614;DHT22;1821;50.936;6.854;2023-04-15T03:33:08;4.50;99.90
3614;DHT22;1821;50.936;6.854;2023-04-15T03:33:49;4.50;99.90
3614;DHT22;1821;50.936;6.854;2023-04-15T03:34:31;4.50;99.90
3614;DHT22;1821;50.936;6.854;2023-04-15T03:35:15;4.50;99.90
3614;DHT22;1821;50.936;6.854;2023-04-15T03:35:57;4.40;99.90
3614;DHT22;1821;50.936;6.854;2023-04-15T03:36:40;4.50;99.90
3614;DHT22;1821;50.936;6.854;2023-04-15T03:37:22;4.50;99.90
3614;DHT22;1821;50.936;6.854;2023-04-15T03:38:04;4.50;99.90
3614;DHT22;1821;50.936;6.854;2023-04-15T03:38:48;4.50;99.90
3614;DHT22;1821;50.936;6.854;2023-04-15T03:39:30;4.60;99.90
3614;DHT22;1821;50.936;6.854;2023-04-15T03:40:12;4.50;99.90
3614;DHT22;1821;50.936;6.854;2023-04-15T03:40:54;4.60;99.90
3614;DHT22;1821;50.936;6.854;2023-04-15T03:41:36;4.50;99.90
3614;DHT22;1821;50.936;6.854;2023-04-15T03:42:18;4.50;99.90
3614;DHT22;1821;50.936;6.854;2023-04-15T03:43:00;4.60;99.90
3614;DHT22;1821;50.936;6.854;2023-04-15T03:43:42;4.60;99.90
3614;DHT22;1821;50.936;6.854;2023-04-15T03:44:27;4.50;99.90
3614;DHT22;1821;50.936;6.854;2023-04-15T03:45:09;4.40;99.90
3614;DHT22;1821;50.936;6.854;2023-04-15T03:45:52;4.50;99.90
3614;DHT22;1821;50.936;6.854;2023-04-15T03:46:36;4.40;99.90
3614;DHT22;1821;50.936;6.854;2023-04-15T03:47:18;4.50;99.90
3614;DHT22;1821;50.936;6.854;2023-04-15T03:48:00;4.40;99.90
3614;DHT22;1821;50.936;6.854;2023-04-15T03:48:46;4.50;99.90
3614;DHT22;1821;50.936;6.854;2023-04-15T03:49:29;4.40;99.90
3614;DHT22;1821;50.936;6.854;2023-04-15T03:50:13;4.40;99.90
3614;DHT22;1821;50.936;6.854;2023-04-15T03:50:55;4.40;99.90
3614;DHT22;1821;50.936;6.854;2023-04-15T03:51:37;4.40;99.90
3614;DHT22;1821;50.936;6.854;2023-04-15T03:52:21;4.60;99.90
3614;DHT22;1821;50.936;6.854;2023-04-15T03:53:02;4.40;99.90
3614;DHT22;1821;50.936;6.854;2023-04-15T03:53:44;4.50;99.90
3614;DHT22;1821;50.936;6.854;2023-04-15T03:54:26;4.50;99.90
3614;DHT22;1821;50.936;6.854;2023-04-15T03:55:08;4.40;99.90
3614;DHT22;1821;50.936;6.854;2023-04-15T03:55:53;4.50;99.90
3614;DHT22;1821;50.936;6.854;2023-04-15T03:56:35;4.40;99.90
3614;DHT22;1821;50.936;6.854;2023-04-15T03:57:17;4.50;99.90
3614;DHT22;1821;50.936;6.854;2023-04-15T03:58:01;4.40;99.90
3614;DHT22;1821;50.936;6.854;2023-04-15T03:58:43;4.40;99.90
3614;DHT22;1821;50.936;6.854;2023-04-15T03:59:25;4.40;99.90
3614;DHT22;1821;50.936;6.854;2023-04-15T04:00:08;4.30;99.90
3614;DHT22;1821;50.936;6.854;2023-04-15T04:00:53;4.40;99.90
3614;DHT22;1821;50.936;6.854;2023-04-15T04:01:35;4.30;99.90
3614;DHT22;1821;50.936;6.854;2023-04-15T04:02:17;4.30;99.90
3614;DHT22;1821;50.936;6.854;2023-04-15T04:02:59;4.40;99.90
3614;DHT22;1821;50.936;6.854;2023-04-15T04:03:42;4.40;99.90
3614;DHT22;1821;50.936;6.854;2023-04-15T04:04:24;4.40;99.90
3614;DHT22;1821;50.936;6.854;2023-04-15T04:05:06;4.20;99.90
3614;DHT22;1821;50.936;6.854;2023-04-15T04:05:49;4.20;99.90
3614;DHT22;1821;50.936;6.854;2023-04-15T04:06:31;4.30;99.90
3614;DHT22;1821;50.936;6.854;2023-04-15T04:07:16;4.30;99.90
3614;DHT22;1821;50.936;6.854;2023-04-15T04:07:58;4.20;99.90
3614;DHT22;1821;50.936;6.854;2023-04-15T04:08:41;4.40;99.90
3614;DHT22;1821;50.936;6.854;2023-04-15T04:09:23;4.30;99.90
3614;DHT22;1821;50.936;6.854;2023-04-15T04:10:09;4.30;99.90
3614;DHT22;1821;50.936;6.854;2023-04-15T04:10:53;4.20;99.90
3614;DHT22;1821;50.936;6.854;2023-04-15T04:11:35;4.40;99.90
3614;DHT22;1821;50.936;6.854;2023-04-15T04:12:18;4.40;99.90
3614;DHT22;1821;50.936;6.854;2023-04-15T04:13:00;4.50;99.90
3614;DHT22;1821;50.936;6.854;2023-04-15T04:13:42;4.40;99.90
3614;DHT22;1821;50.936;6.854;2023-04-15T04:14:24;4.40;99.90
3614;DHT22;1821;50.936;6.854;2023-04-15T04:15:10;4.40;99.90
3614;DHT22;1821;50.936;6.854;2023-04-15T04:15:52;4.40;99.90
3614;DHT22;1821;50.936;6.854;2023-04-15T04:16:34;4.40;99.90
3614;DHT22;1821;50.936;6.854;2023-04-15T04:17:17;4.20;99.90
3614;DHT22;1821;50.936;6.854;2023-04-15T04:17:59;4.20;99.90
3614;DHT22;1821;50.936;6.854;2023-04-15T04:18:41;4.30;99.90
3614;DHT22;1821;50.936;6.854;2023-04-15T04:19:23;4.40;99.90
3614;DHT22;1821;50.936;6.854;2023-04-15T04:20:06;4.20;99.90
3614;DHT22;1821;50.936;6.854;2023-04-15T04:20:48;4.20;99.90
3614;DHT22;1821;50.936;6.854;2023-04-15T04:21:30;4.30;99.90
3614;DHT22;1821;50.936;6.854;2023-04-15T04:22:14;4.50;99.90
3614;DHT22;1821;50.936;6.854;2023-04-15T04:22:56;4.40;99.90
3614;DHT22;1821;50.936;6.854;2023-04-15T04:23:39;4.30;99.90
3614;DHT22;1821;50.936;6.854;2023-04-15T04:24:22;4.40;99.90
3614;DHT22;1821;50.936;6.854;2023-04-15T04:25:05;4.40;99.90
3614;DHT22;1821;50.936;6.854;2023-04-15T04:25:47;4.40;99.90
3614;DHT22;1821;50.936;6.854;2023-04-15T04:26:29;4.30;99.90
3614;DHT22;1821;50.936;6.854;2023-04-15T04:27:11;4.40;99.90
3614;DHT22;1821;50.936;6.854;2023-04-15T04:27:54;4.40;99.90
3614;DHT22;1821;50.936;6.854;2023-04-15T04:28:36;4.40;99.90
3614;DHT22;1821;50.936;6.854;2023-04-15T04:29:18;4.30;99.90
3614;DHT22;1821;50.936;6.854;2023-04-15T04:30:00;4.40;99.90
3614;DHT22;1821;50.936;6.854;2023-04-15T04:30:42;4.30;99.90
3614;DHT22;1821;50.936;6.854;2023-04-15T04:31:24;4.60;99.90
3614;DHT22;1821;50.936;6.854;2023-04-15T04:32:06;4.40;99.90
3614;DHT22;1821;50.936;6.854;2023-04-15T04:32:49;4.30;99.90
3614;DHT22;1821;50.936;6.854;2023-04-15T04:33:32;4.30;99.90
3614;DHT22;1821;50.936;6.854;2023-04-15T04:34:16;4.30;99.90
3614;DHT22;1821;50.936;6.854;2023-04-15T04:34:58;4.40;99.90
3614;DHT22;1821;50.936;6.854;2023-04-15T04:35:40;4.30;99.90
3614;DHT22;1821;50.936;6.854;2023-04-15T04:36:22;4.30;99.90
3614;DHT22;1821;50.936;6.854;2023-04-15T04:37:04;4.20;99.90
3614;DHT22;1821;50.936;6.854;2023-04-15T04:37:48;4.00;99.90
3614;DHT22;1821;50.936;6.854;2023-04-15T04:38:33;4.30;99.90
3614;DHT22;1821;50.936;6.854;2023-04-15T04:39:16;4.30;99.90
3614;DHT22;1821;50.936;6.854;2023-04-15T04:39:58;4.40;99.90
3614;DHT22;1821;50.936;6.854;2023-04-15T04:41:22;4.40;99.90
3614;DHT22;1821;50.936;6.854;2023-04-15T04:42:04;4.40;99.90
3614;DHT22;1821;50.936;6.854;2023-04-15T04:42:48;4.30;99.90
3614;DHT22;1821;50.936;6.854;2023-04-15T04:43:31;4.20;99.90
3614;DHT22;1821;50.936;6.854;2023-04-15T04:44:15;4.40;99.90
3614;DHT22;1821;50.936;6.854;2023-04-15T04:44:57;4.40;99.90